Time;durP1;ratioP1;P1;durP2;ratioP2;P2;SDS_P1;SDS_P2;PMS_P1;PMS_P2;Temp;Humidity;BMP_temperature;BMP_pressure;BME280_temperature;BME280_humidity;BME280_pressure;Samples;Min_cycle;Max_cycle;Signal;HPM_P1;HPM_P2
2022/12/15 00:40:31;;;;;;;;;;;;;;;;;;5091220;28;1166;-70
2022/12/15 00:42:57;;;;;;;;;;;;;;;;;;5092470;28;1336;-70
2022/12/15 00:46:53;;;;;;;;;;;;;;;;;;5094818;28;1047;-70
2022/12/15 00:48:10;;;;;;;;;;;;;;;;;;5094319;28;1516;-70
2022/12/15 00:50:54;;;;;;;;;;;;;;;;;;5094520;28;1914;-70
2022/12/15 01:20:41;;;;;;;;;;;;;;;;;;5073743;28;1002;-75
2022/12/15 01:23:07;;;;;;;;;;;;;;;;;;5054635;28;1384;-75
2022/12/15 01:25:34;;;;;;;;;;;;;;;;;;5072210;28;1423;-76
2022/12/15 01:28:00;;;;;;;;;;;;;;;;;;5073715;28;1083;-76
2022/12/15 01:30:26;;;;;;;;;;;;;;;;;;5077260;28;1906;-76
2022/12/15 01:32:53;;;;;;;;;;;;;;;;;;5074747;28;1151;-76
2022/12/15 01:35:20;;;;;;;;;;;;;;;;;;5093202;28;1316;-75
2022/12/15 01:37:47;;;;;;;;;;;;;;;;;;5075407;28;1416;-75
2022/12/15 01:42:58;;;;;;;;;;;;;;;;;;5091667;28;1112;-75
2022/12/15 01:45:37;;;;;;;;;;;;;;;;;;5073334;28;2037;-76
2022/12/15 01:48:04;;;;;;;;;;;;;;;;;;5082371;28;1122;-76
2022/12/15 01:50:32;;;;;;;;;;;;;;;;;;5054865;28;1972;-76
2022/12/15 01:52:58;;;;;;;;;;;;;;;;;;5071868;28;740;-76
2022/12/15 01:55:25;;;;;;;;;;;;;;;;;;5069812;28;1303;-76
2022/12/15 01:57:52;;;;;;;;;;;;;;;;;;5074465;28;755;-76
2022/12/15 02:00:18;;;;;;;;;;;;;;;;;;5074054;28;790;-75
2022/12/15 02:02:44;;;;;;;;;;;;;;;;;;5072387;28;707;-72
2022/12/15 02:05:10;;;;;;;;;;;;;;;;;;5072676;28;1359;-74
2022/12/15 02:07:38;;;;;;;;;;;;;;;;;;5073055;28;977;-75
2022/12/15 02:10:06;;;;;;;;;;;;;;;;;;5072662;28;1969;-75
2022/12/15 02:12:34;;;;;;;;;;;;;;;;;;5072007;28;1134;-76
2022/12/15 02:15:04;;;;;;;;;;;;;;;;;;5072549;28;1365;-75
2022/12/15 02:17:33;;;;;;;;;;;;;;;;;;5054900;28;1241;-77
2022/12/15 02:20:17;;;;;;;;;;;;;;;;;;5054791;28;1283;-75
2022/12/15 02:22:50;;;;;;;;;;;;;;;;;;5071964;28;743;-75
2022/12/15 02:25:20;;;;;;;;;;;;;;;;;;5072299;28;1408;-76
2022/12/15 02:27:52;;;;;;;;;;;;;;;;;;5072591;28;1090;-75
2022/12/15 02:30:20;;;;;;;;;;;;;;;;;;5072279;28;1960;-76
2022/12/15 02:33:01;;;;;;;;;;;;;;;;;;5076578;28;1451;-75
2022/12/15 02:35:28;;;;;;;;;;;;;;;;;;5092689;28;1284;-76
2022/12/15 02:37:55;;;;;;;;;;;;;;;;;;5074862;28;1219;-75
2022/12/15 02:40:21;;;;;;;;;;;;;;;;;;5092488;28;977;-75
2022/12/15 02:42:48;;;;;;;;;;;;;;;;;;5091854;28;1087;-76
2022/12/15 02:45:14;;;;;;;;;;;;;;;;;;5074101;28;1472;-75
2022/12/15 02:47:44;;;;;;;;;;;;;;;;;;5074366;28;1210;-75
2022/12/15 02:50:20;;;;;;;;;;;;;;;;;;5091958;28;1959;-76
2022/12/15 02:52:49;;;;;;;;;;;;;;;;;;5091560;28;1051;-74
2022/12/15 02:55:17;;;;;;;;;;;;;;;;;;5092087;28;1296;-75
2022/12/15 02:57:44;;;;;;;;;;;;;;;;;;5092422;28;767;-76
2022/12/15 03:00:11;;;;;;;;;;;;;;;;;;5073917;28;1337;-74
2022/12/15 03:02:37;;;;;;;;;;;;;;;;;;5073685;28;1171;-74
2022/12/15 03:05:05;;;;;;;;;;;;;;;;;;5092416;28;1375;-76
2022/12/15 03:07:31;;;;;;;;;;;;;;;;;;5074428;28;1258;-75
2022/12/15 03:09:58;;;;;;;;;;;;;;;;;;5092283;28;1909;-75
2022/12/15 03:12:24;;;;;;;;;;;;;;;;;;5075674;28;1096;-76
2022/12/15 03:14:51;;;;;;;;;;;;;;;;;;5096137;28;1306;-73
2022/12/15 03:17:17;;;;;;;;;;;;;;;;;;5096328;28;932;-75
2022/12/15 03:19:43;;;;;;;;;;;;;;;;;;5096018;28;1125;-76
2022/12/15 03:22:11;;;;;;;;;;;;;;;;;;5095402;28;983;-75
2022/12/15 03:24:37;;;;;;;;;;;;;;;;;;5095846;28;1298;-76
2022/12/15 03:27:03;;;;;;;;;;;;;;;;;;5077819;28;1151;-76
2022/12/15 03:29:29;;;;;;;;;;;;;;;;;;5077792;28;1145;-75
2022/12/15 03:31:56;;;;;;;;;;;;;;;;;;5095198;28;1944;-75
2022/12/15 03:34:22;;;;;;;;;;;;;;;;;;5073340;28;1352;-76
2022/12/15 03:36:48;;;;;;;;;;;;;;;;;;5078154;28;1830;-76
2022/12/15 03:39:16;;;;;;;;;;;;;;;;;;5072968;28;1842;-75
2022/12/15 03:41:42;;;;;;;;;;;;;;;;;;5079894;28;1121;-76
2022/12/15 03:44:08;;;;;;;;;;;;;;;;;;5056980;28;1377;-75
2022/12/15 03:46:34;;;;;;;;;;;;;;;;;;5055707;28;1149;-76
2022/12/15 03:49:01;;;;;;;;;;;;;;;;;;5052183;28;1111;-77
2022/12/15 03:51:27;;;;;;;;;;;;;;;;;;5069456;28;1971;-76
2022/12/15 03:53:53;;;;;;;;;;;;;;;;;;5074037;28;1321;-75
2022/12/15 03:56:21;;;;;;;;;;;;;;;;;;5074556;28;1114;-76
2022/12/15 03:58:47;;;;;;;;;;;;;;;;;;5072853;28;1039;-76
2022/12/15 04:01:19;;;;;;;;;;;;;;;;;;5057034;28;2644;-74
2022/12/15 04:03:45;;;;;;;;;;;;;;;;;;5075064;28;921;-75
2022/12/15 04:06:11;;;;;;;;;;;;;;;;;;5076280;28;1503;-74
2022/12/15 04:08:37;;;;;;;;;;;;;;;;;;5089019;28;1589;-74
2022/12/15 04:11:04;;;;;;;;;;;;;;;;;;5088721;28;1964;-75
2022/12/15 04:13:31;;;;;;;;;;;;;;;;;;5067136;28;1419;-75
2022/12/15 04:15:57;;;;;;;;;;;;;;;;;;5086909;28;1400;-75
2022/12/15 04:18:24;;;;;;;;;;;;;;;;;;5084587;28;1552;-76
2022/12/15 04:20:49;;;;;;;;;;;;;;;;;;5064863;28;1824;-75
2022/12/15 04:23:15;;;;;;;;;;;;;;;;;;5065156;28;1740;-77
2022/12/15 05:34:09;;;;;;;;;;;;;;;;;;5093394;28;1276;-75
2022/12/15 05:36:37;;;;;;;;;;;;;;;;;;5074652;28;1210;-76
2022/12/15 05:39:03;;;;;;;;;;;;;;;;;;5093834;28;1008;-76
2022/12/15 05:41:29;;;;;;;;;;;;;;;;;;5093071;28;1113;-75
2022/12/15 05:43:56;;;;;;;;;;;;;;;;;;5081596;28;1416;-75
2022/12/15 05:46:22;;;;;;;;;;;;;;;;;;5073270;28;933;-76
2022/12/15 05:48:48;;;;;;;;;;;;;;;;;;5073333;28;1142;-73
2022/12/15 05:51:14;;;;;;;;;;;;;;;;;;5073102;28;1906;-76
2022/12/15 05:53:42;;;;;;;;;;;;;;;;;;5072993;28;1059;-76
2022/12/15 05:56:09;;;;;;;;;;;;;;;;;;5085922;28;1774;-75
2022/12/15 05:58:35;;;;;;;;;;;;;;;;;;5079229;28;1286;-76
2022/12/15 06:01:02;;;;;;;;;;;;;;;;;;5073482;28;1067;-75
2022/12/15 06:03:28;;;;;;;;;;;;;;;;;;5072802;28;1087;-75
2022/12/15 06:05:55;;;;;;;;;;;;;;;;;;5090804;28;1434;-76
2022/12/15 06:08:22;;;;;;;;;;;;;;;;;;5092198;28;1087;-76
2022/12/15 06:10:53;;;;;;;;;;;;;;;;;;5093089;28;1924;-76
2022/12/15 06:13:19;;;;;;;;;;;;;;;;;;5092631;28;1060;-75
2022/12/15 06:15:53;;;;;;;;;;;;;;;;;;5093026;28;1305;-75
2022/12/15 06:18:19;;;;;;;;;;;;;;;;;;5075561;28;1172;-76
2022/12/15 06:20:45;;;;;;;;;;;;;;;;;;5093442;28;1063;-75
2022/12/15 06:23:12;;;;;;;;;;;;;;;;;;5092578;28;859;-76
2022/12/15 06:25:38;;;;;;;;;;;;;;;;;;5092813;28;1475;-76
2022/12/15 06:28:05;;;;;;;;;;;;;;;;;;5093207;28;1051;-76
2022/12/15 06:30:31;;;;;;;;;;;;;;;;;;5093564;28;774;-75
2022/12/15 06:32:58;;;;;;;;;;;;;;;;;;5092702;28;1915;-75
2022/12/15 06:35:24;;;;;;;;;;;;;;;;;;5071630;28;1360;-76
2022/12/15 06:37:50;;;;;;;;;;;;;;;;;;5090075;28;1116;-76
2022/12/15 06:40:17;;;;;;;;;;;;;;;;;;5088944;28;1282;-75
2022/12/15 06:42:43;;;;;;;;;;;;;;;;;;5088011;28;1079;-75
2022/12/15 06:45:10;;;;;;;;;;;;;;;;;;5089416;28;1351;-75
2022/12/15 06:47:37;;;;;;;;;;;;;;;;;;5086941;28;896;-76
2022/12/15 06:50:03;;;;;;;;;;;;;;;;;;5088478;28;1226;-73
2022/12/15 06:52:29;;;;;;;;;;;;;;;;;;5091168;28;1997;-76
2022/12/15 06:54:56;;;;;;;;;;;;;;;;;;5090505;28;1393;-76
2022/12/15 06:57:23;;;;;;;;;;;;;;;;;;5077599;28;2143;-77
2022/12/15 06:59:49;;;;;;;;;;;;;;;;;;5068397;28;1117;-76
2022/12/15 07:02:17;;;;;;;;;;;;;;;;;;5068755;28;920;-76
2022/12/15 07:04:44;;;;;;;;;;;;;;;;;;5070710;28;1445;-76
2022/12/15 07:07:10;;;;;;;;;;;;;;;;;;5068244;28;817;-77
2022/12/15 07:09:36;;;;;;;;;;;;;;;;;;5068074;28;1059;-75
2022/12/15 07:12:02;;;;;;;;;;;;;;;;;;5070066;28;1918;-76
2022/12/15 07:14:28;;;;;;;;;;;;;;;;;;5068496;28;1337;-76
2022/12/15 07:16:55;;;;;;;;;;;;;;;;;;5054082;28;1156;-76
2022/12/15 07:19:22;;;;;;;;;;;;;;;;;;5052676;28;1247;-74
2022/12/15 07:21:48;;;;;;;;;;;;;;;;;;5071158;28;1110;-75
2022/12/15 07:24:15;;;;;;;;;;;;;;;;;;5071642;28;1325;-75
2022/12/15 07:26:41;;;;;;;;;;;;;;;;;;5053924;28;1076;-75
2022/12/15 07:29:07;;;;;;;;;;;;;;;;;;5071804;28;1114;-75
2022/12/15 07:31:33;;;;;;;;;;;;;;;;;;5071092;28;1901;-75
2022/12/15 07:34:00;;;;;;;;;;;;;;;;;;5069512;28;1758;-75
2022/12/15 07:36:28;;;;;;;;;;;;;;;;;;5070262;28;1800;-75
2022/12/15 07:38:57;;;;;;;;;;;;;;;;;;5085048;28;1122;-75
2022/12/15 07:41:23;;;;;;;;;;;;;;;;;;5070861;28;1224;-75
2022/12/15 07:43:49;;;;;;;;;;;;;;;;;;5071455;28;1346;-75
2022/12/15 07:46:16;;;;;;;;;;;;;;;;;;5073568;28;1157;-75
2022/12/15 07:48:42;;;;;;;;;;;;;;;;;;5071674;28;1687;-75
2022/12/15 07:51:09;;;;;;;;;;;;;;;;;;5067551;28;1148;-74
2022/12/15 07:53:37;;;;;;;;;;;;;;;;;;5086592;28;1198;-75
2022/12/15 07:56:04;;;;;;;;;;;;;;;;;;5068831;28;1337;-75
2022/12/15 07:58:31;;;;;;;;;;;;;;;;;;5054248;28;1337;-76
2022/12/15 08:00:58;;;;;;;;;;;;;;;;;;5074456;28;1096;-75
2022/12/15 08:03:25;;;;;;;;;;;;;;;;;;5073873;28;1564;-75
2022/12/15 08:05:51;;;;;;;;;;;;;;;;;;5072283;28;1330;-75
2022/12/15 08:08:17;;;;;;;;;;;;;;;;;;5071344;28;1076;-75
2022/12/15 08:10:45;;;;;;;;;;;;;;;;;;5069474;28;941;-75
2022/12/15 08:13:12;;;;;;;;;;;;;;;;;;5052858;28;1985;-75
2022/12/15 08:15:38;;;;;;;;;;;;;;;;;;5074348;28;1442;-76
2022/12/15 08:18:04;;;;;;;;;;;;;;;;;;5076384;28;1408;-76
2022/12/15 08:20:30;;;;;;;;;;;;;;;;;;5091230;28;1037;-76
2022/12/15 08:22:57;;;;;;;;;;;;;;;;;;5093641;28;1067;-76
2022/12/15 08:25:23;;;;;;;;;;;;;;;;;;5094602;28;1312;-75
2022/12/15 08:27:51;;;;;;;;;;;;;;;;;;5076276;28;1181;-75
2022/12/15 08:30:18;;;;;;;;;;;;;;;;;;5090602;28;913;-75
2022/12/15 08:32:44;;;;;;;;;;;;;;;;;;5090561;28;1969;-75
2022/12/15 08:35:11;;;;;;;;;;;;;;;;;;5092195;28;1297;-76
2022/12/15 08:37:38;;;;;;;;;;;;;;;;;;5092955;28;852;-75
2022/12/15 08:40:05;;;;;;;;;;;;;;;;;;5094376;28;932;-76
2022/12/15 08:42:32;;;;;;;;;;;;;;;;;;5093501;28;1078;-76
2022/12/15 08:45:00;;;;;;;;;;;;;;;;;;5093814;28;1310;-75
2022/12/15 08:47:26;;;;;;;;;;;;;;;;;;5094293;28;692;-76
2022/12/15 08:49:53;;;;;;;;;;;;;;;;;;5077540;28;1399;-75
2022/12/15 08:52:19;;;;;;;;;;;;;;;;;;5094295;28;2028;-75
2022/12/15 08:54:45;;;;;;;;;;;;;;;;;;5075699;28;1710;-78
2022/12/15 08:57:11;;;;;;;;;;;;;;;;;;5075244;28;1118;-76
2022/12/15 08:59:38;;;;;;;;;;;;;;;;;;5094549;28;996;-75
2022/12/15 09:02:05;;;;;;;;;;;;;;;;;;5093123;28;1071;-75
2022/12/15 09:04:32;;;;;;;;;;;;;;;;;;5093837;28;1365;-75
2022/12/15 09:06:58;;;;;;;;;;;;;;;;;;5093950;28;762;-75
2022/12/15 09:09:24;;;;;;;;;;;;;;;;;;5088380;28;1207;-75
2022/12/15 09:11:50;;;;;;;;;;;;;;;;;;5083328;28;1975;-75
2022/12/15 09:14:17;;;;;;;;;;;;;;;;;;5073803;28;1513;-75
2022/12/15 09:16:43;;;;;;;;;;;;;;;;;;5078651;28;1140;-75
2022/12/15 09:19:11;;;;;;;;;;;;;;;;;;5073104;28;779;-75
2022/12/15 09:21:38;;;;;;;;;;;;;;;;;;5072565;28;948;-75
2022/12/15 09:24:05;;;;;;;;;;;;;;;;;;5073145;28;1328;-74
2022/12/15 09:26:32;;;;;;;;;;;;;;;;;;5073153;28;1079;-75
2022/12/15 09:28:58;;;;;;;;;;;;;;;;;;5073047;28;1072;-77
2022/12/15 09:31:24;;;;;;;;;;;;;;;;;;5070944;28;1307;-75
2022/12/15 09:33:51;;;;;;;;;;;;;;;;;;5085889;28;2065;-76
2022/12/15 09:36:19;;;;;;;;;;;;;;;;;;5083217;28;1851;-76
2022/12/15 09:38:45;;;;;;;;;;;;;;;;;;5069986;28;2002;-75
2022/12/15 09:41:17;;;;;;;;;;;;;;;;;;5091659;28;1054;-76
2022/12/15 09:43:46;;;;;;;;;;;;;;;;;;5093257;28;751;-76
2022/12/15 09:46:15;;;;;;;;;;;;;;;;;;5092941;28;1451;-76
2022/12/15 09:48:41;;;;;;;;;;;;;;;;;;5089854;28;1126;-76
2022/12/15 09:51:08;;;;;;;;;;;;;;;;;;5075531;28;1266;-76
2022/12/15 09:53:36;;;;;;;;;;;;;;;;;;5072029;28;1965;-75
2022/12/15 09:56:03;;;;;;;;;;;;;;;;;;5072283;28;1257;-76
2022/12/15 09:58:32;;;;;;;;;;;;;;;;;;5075070;28;1197;-76
2022/12/15 10:01:00;;;;;;;;;;;;;;;;;;5054344;28;1163;-76
2022/12/15 10:03:33;;;;;;;;;;;;;;;;;;5053695;28;1202;-76
2022/12/15 10:06:10;;;;;;;;;;;;;;;;;;5071279;28;1353;-76
2022/12/15 10:08:39;;;;;;;;;;;;;;;;;;5071337;28;1261;-76
2022/12/15 10:11:11;;;;;;;;;;;;;;;;;;5071706;28;1115;-76
2022/12/15 10:13:38;;;;;;;;;;;;;;;;;;5071721;28;1967;-76
2022/12/15 10:16:05;;;;;;;;;;;;;;;;;;5071272;28;1412;-76
2022/12/15 10:18:32;;;;;;;;;;;;;;;;;;5072033;28;1051;-76
2022/12/15 10:20:58;;;;;;;;;;;;;;;;;;5070912;28;1059;-76
2022/12/15 10:23:24;;;;;;;;;;;;;;;;;;5069249;28;1101;-76
2022/12/15 10:25:55;;;;;;;;;;;;;;;;;;5054174;28;1471;-76
2022/12/15 10:28:27;;;;;;;;;;;;;;;;;;5091312;28;1527;-76
2022/12/15 10:30:57;;;;;;;;;;;;;;;;;;5092219;28;754;-76
2022/12/15 10:33:23;;;;;;;;;;;;;;;;;;5091985;28;1965;-79
2022/12/15 10:35:50;;;;;;;;;;;;;;;;;;5094216;28;1363;-78
2022/12/15 10:38:24;;;;;;;;;;;;;;;;;;5092476;28;758;-76
2022/12/15 10:40:51;;;;;;;;;;;;;;;;;;5073793;28;1194;-76
2022/12/15 10:43:29;;;;;;;;;;;;;;;;;;5073270;28;1199;-76
2022/12/15 10:46:03;;;;;;;;;;;;;;;;;;5091334;28;1435;-75
2022/12/15 10:48:29;;;;;;;;;;;;;;;;;;5091163;28;877;-76
2022/12/15 10:51:06;;;;;;;;;;;;;;;;;;5090587;28;823;-75
2022/12/15 10:53:34;;;;;;;;;;;;;;;;;;5087824;28;1914;-76
2022/12/15 10:56:01;;;;;;;;;;;;;;;;;;5087766;28;1319;-76
2022/12/15 10:58:28;;;;;;;;;;;;;;;;;;5073569;28;1361;-76
2022/12/15 11:01:04;;;;;;;;;;;;;;;;;;5088733;28;812;-77
2022/12/15 11:03:35;;;;;;;;;;;;;;;;;;5090168;28;595;-76
2022/12/15 11:06:01;;;;;;;;;;;;;;;;;;5090466;28;1395;-77
2022/12/15 11:08:27;;;;;;;;;;;;;;;;;;5090665;28;968;-76
2022/12/15 11:13:39;;;;;;;;;;;;;;;;;;5085637;28;1914;-77
2022/12/15 11:16:14;;;;;;;;;;;;;;;;;;5085677;28;1361;-76
2022/12/15 11:18:41;;;;;;;;;;;;;;;;;;5086878;28;940;-76
2022/12/15 11:21:10;;;;;;;;;;;;;;;;;;5089629;28;905;-76
2022/12/15 11:23:41;;;;;;;;;;;;;;;;;;5090130;28;1064;-78
2022/12/15 11:26:12;;;;;;;;;;;;;;;;;;5072180;28;1436;-76
2022/12/15 11:28:41;;;;;;;;;;;;;;;;;;5072297;28;1101;-76
2022/12/15 11:31:20;;;;;;;;;;;;;;;;;;5079315;28;1735;-74
2022/12/15 11:33:46;;;;;;;;;;;;;;;;;;5074429;28;1985;-77
2022/12/15 11:36:14;;;;;;;;;;;;;;;;;;5094252;28;1288;-76
2022/12/15 11:38:42;;;;;;;;;;;;;;;;;;5094334;28;937;-77
2022/12/15 11:41:08;;;;;;;;;;;;;;;;;;5093238;28;916;-77
2022/12/15 11:43:38;;;;;;;;;;;;;;;;;;5101255;28;822;-77
2022/12/15 11:46:09;;;;;;;;;;;;;;;;;;5114747;28;1442;-77
2022/12/15 11:48:37;;;;;;;;;;;;;;;;;;5091715;28;1259;-77
2022/12/15 11:51:05;;;;;;;;;;;;;;;;;;5074727;28;1237;-77
2022/12/15 11:53:36;;;;;;;;;;;;;;;;;;5055381;28;1914;-77
2022/12/15 11:56:03;;;;;;;;;;;;;;;;;;5055687;28;1458;-77
2022/12/15 11:58:42;;;;;;;;;;;;;;;;;;5072674;28;1155;-77
2022/12/15 12:01:12;;;;;;;;;;;;;;;;;;5072753;28;1044;-77
2022/12/15 12:03:39;;;;;;;;;;;;;;;;;;5071365;28;908;-76
2022/12/15 12:06:10;;;;;;;;;;;;;;;;;;5073452;28;1321;-77
2022/12/15 12:08:46;;;;;;;;;;;;;;;;;;5078190;28;1153;-77
2022/12/15 12:11:13;;;;;;;;;;;;;;;;;;5073194;28;697;-77
2022/12/15 12:13:41;;;;;;;;;;;;;;;;;;5074920;28;1906;-77
2022/12/15 12:16:10;;;;;;;;;;;;;;;;;;5081228;28;1732;-77
2022/12/15 12:18:38;;;;;;;;;;;;;;;;;;5069986;28;1251;-77
2022/12/15 12:21:05;;;;;;;;;;;;;;;;;;5071630;28;1134;-77
2022/12/15 12:23:33;;;;;;;;;;;;;;;;;;5099946;28;1271;-77
2022/12/15 12:26:00;;;;;;;;;;;;;;;;;;5082688;28;1443;-77
2022/12/15 12:28:27;;;;;;;;;;;;;;;;;;5053968;28;1216;-77
2022/12/15 12:30:53;;;;;;;;;;;;;;;;;;5069356;28;1078;-77
2022/12/15 12:33:21;;;;;;;;;;;;;;;;;;5086156;28;1918;-77
2022/12/15 12:35:50;;;;;;;;;;;;;;;;;;5089322;28;1375;-77
2022/12/15 12:38:19;;;;;;;;;;;;;;;;;;5071804;28;1305;-78
2022/12/15 12:40:46;;;;;;;;;;;;;;;;;;5090028;28;830;-77
2022/12/15 12:43:15;;;;;;;;;;;;;;;;;;5088753;28;941;-77
2022/12/15 12:45:44;;;;;;;;;;;;;;;;;;5074294;28;1399;-77
2022/12/15 12:48:12;;;;;;;;;;;;;;;;;;5094051;28;799;-77
2022/12/15 12:50:38;;;;;;;;;;;;;;;;;;5092385;28;886;-77
2022/12/15 12:53:06;;;;;;;;;;;;;;;;;;5092813;28;1923;-78
2022/12/15 12:55:36;;;;;;;;;;;;;;;;;;5073571;28;1302;-78
2022/12/15 12:58:02;;;;;;;;;;;;;;;;;;5075188;28;766;-77
2022/12/15 13:00:29;;;;;;;;;;;;;;;;;;5091944;28;1203;-78
2022/12/15 13:03:16;;;;;;;;;;;;;;;;;;5087246;28;1251;-77
2022/12/15 13:05:43;;;;;;;;;;;;;;;;;;5090763;28;1316;-78
2022/12/15 13:08:18;;;;;;;;;;;;;;;;;;5083288;28;1093;-77
2022/12/15 13:10:45;;;;;;;;;;;;;;;;;;5084241;28;1526;-77
2022/12/15 13:13:16;;;;;;;;;;;;;;;;;;5086084;28;1967;-77
2022/12/15 13:15:42;;;;;;;;;;;;;;;;;;5093768;28;1452;-77
2022/12/15 13:18:12;;;;;;;;;;;;;;;;;;5089272;28;1212;-78
2022/12/15 13:20:38;;;;;;;;;;;;;;;;;;5090628;28;1138;-77
2022/12/15 13:23:34;;;;;;;;;;;;;;;;;;5103386;22;3473;-70
2022/12/15 13:26:15;;;;;;;;;;;;;;;;;;5049473;28;1089;-71
2022/12/15 13:28:43;;;;;;;;;;;;;;;;;;5048032;28;1207;-71
2022/12/15 13:31:14;;;;;;;;;;;;;;;;;;5050976;28;1055;-70
2022/12/15 13:33:44;;;;;;;;;;;;;;;;;;5048072;28;1902;-72
2022/12/15 13:36:10;;;;;;;;;;;;;;;;;;5033094;28;1375;-71
2022/12/15 13:38:52;;;;;;;;;;;;;;;;;;5043768;28;870;-71
2022/12/15 13:41:21;;;;;;;;;;;;;;;;;;5055177;28;1121;-71
2022/12/15 13:43:48;;;;;;;;;;;;;;;;;;5054242;28;1364;-71
2022/12/15 13:46:15;;;;;;;;;;;;;;;;;;5053019;28;930;-70
2022/12/15 13:48:41;;;;;;;;;;;;;;;;;;5052723;28;1133;-70
2022/12/15 13:51:22;;;;;;;;;;;;;;;;;;5052810;28;964;-70
2022/12/15 13:53:49;;;;;;;;;;;;;;;;;;5053138;28;1907;-70
2022/12/15 13:56:28;;;;;;;;;;;;;;;;;;5051921;28;862;-70
2022/12/15 13:58:57;;;;;;;;;;;;;;;;;;5051630;28;1059;-71
2022/12/15 14:01:24;;;;;;;;;;;;;;;;;;5051933;28;1043;-70
2022/12/15 14:04:03;;;;;;;;;;;;;;;;;;5052733;28;1203;-71
2022/12/15 14:06:34;;;;;;;;;;;;;;;;;;5052656;28;857;-70
2022/12/15 14:09:00;;;;;;;;;;;;;;;;;;5052966;28;1110;-70
2022/12/15 14:11:28;;;;;;;;;;;;;;;;;;5051639;28;996;-69
2022/12/15 14:13:54;;;;;;;;;;;;;;;;;;5052259;28;1914;-70
2022/12/15 14:16:21;;;;;;;;;;;;;;;;;;5053498;28;1062;-70
2022/12/15 14:19:02;;;;;;;;;;;;;;;;;;5053372;28;795;-70
2022/12/15 14:21:29;;;;;;;;;;;;;;;;;;5050609;28;1131;-71
2022/12/15 14:23:56;;;;;;;;;;;;;;;;;;5052137;28;1384;-70
2022/12/15 14:26:26;;;;;;;;;;;;;;;;;;5036071;28;1529;-70
2022/12/15 14:28:59;;;;;;;;;;;;;;;;;;5031469;28;1286;-71
2022/12/15 14:31:25;;;;;;;;;;;;;;;;;;5031481;28;929;-71
2022/12/15 14:33:53;;;;;;;;;;;;;;;;;;5032098;28;1906;-69
2022/12/15 14:36:19;;;;;;;;;;;;;;;;;;5032128;28;1055;-71
2022/12/15 14:38:46;;;;;;;;;;;;;;;;;;5032916;28;932;-71
2022/12/15 14:41:14;;;;;;;;;;;;;;;;;;5030632;28;1145;-71
2022/12/15 14:43:40;;;;;;;;;;;;;;;;;;5030937;28;1856;-71
2022/12/15 14:46:09;;;;;;;;;;;;;;;;;;5032601;28;1024;-71
2022/12/15 14:48:36;;;;;;;;;;;;;;;;;;5032041;28;790;-72
2022/12/15 14:51:03;;;;;;;;;;;;;;;;;;5031957;28;1103;-72
2022/12/15 14:53:31;;;;;;;;;;;;;;;;;;5031111;28;1927;-71
2022/12/15 14:55:59;;;;;;;;;;;;;;;;;;5036156;28;1296;-71
2022/12/15 14:58:27;;;;;;;;;;;;;;;;;;5034444;28;1326;-71
2022/12/15 15:00:53;;;;;;;;;;;;;;;;;;5031608;28;758;-71
2022/12/15 15:03:21;;;;;;;;;;;;;;;;;;5031147;28;1334;-70
2022/12/15 15:05:48;;;;;;;;;;;;;;;;;;5031793;28;948;-71
2022/12/15 15:08:15;;;;;;;;;;;;;;;;;;5031525;28;1094;-71
2022/12/15 15:10:42;;;;;;;;;;;;;;;;;;5063546;28;1381;-71
2022/12/15 15:13:13;;;;;;;;;;;;;;;;;;5031239;28;1398;-70
2022/12/15 15:15:39;;;;;;;;;;;;;;;;;;5030489;28;2001;-71
2022/12/15 15:18:06;;;;;;;;;;;;;;;;;;5031881;28;913;-72
2022/12/15 15:20:34;;;;;;;;;;;;;;;;;;5031819;28;807;-71
2022/12/15 15:23:11;;;;;;;;;;;;;;;;;;5033678;28;1475;-72
2022/12/15 15:25:38;;;;;;;;;;;;;;;;;;5051239;28;1246;-71
2022/12/15 15:28:12;;;;;;;;;;;;;;;;;;5051862;28;775;-73
2022/12/15 15:30:45;;;;;;;;;;;;;;;;;;5040035;28;1202;-71
2022/12/15 15:33:12;;;;;;;;;;;;;;;;;;5041683;28;1457;-71
2022/12/15 15:35:40;;;;;;;;;;;;;;;;;;5039225;28;1971;-72
2022/12/15 15:38:11;;;;;;;;;;;;;;;;;;5039698;28;1222;-70
2022/12/15 15:40:37;;;;;;;;;;;;;;;;;;5030214;28;1159;-71
2022/12/15 15:43:07;;;;;;;;;;;;;;;;;;5029926;28;1329;-71
2022/12/15 15:45:34;;;;;;;;;;;;;;;;;;5030685;28;1183;-71
2022/12/15 15:48:00;;;;;;;;;;;;;;;;;;5030189;28;949;-72
2022/12/15 15:50:28;;;;;;;;;;;;;;;;;;5032711;28;1219;-71
2022/12/15 15:52:55;;;;;;;;;;;;;;;;;;5026781;28;1366;-72
2022/12/15 15:55:24;;;;;;;;;;;;;;;;;;5039911;28;1918;-69
2022/12/15 15:57:50;;;;;;;;;;;;;;;;;;5046203;28;1047;-71
2022/12/15 16:00:18;;;;;;;;;;;;;;;;;;5044952;28;1313;-71
2022/12/15 16:02:44;;;;;;;;;;;;;;;;;;5048384;28;751;-72
2022/12/15 16:05:10;;;;;;;;;;;;;;;;;;5050061;28;1168;-73
2022/12/15 16:07:36;;;;;;;;;;;;;;;;;;5048864;28;1071;-72
2022/12/15 16:10:06;;;;;;;;;;;;;;;;;;5048696;28;936;-71
2022/12/15 16:12:33;;;;;;;;;;;;;;;;;;5031093;28;1218;-71
2022/12/15 16:14:59;;;;;;;;;;;;;;;;;;5026344;28;1979;-73
2022/12/15 16:17:25;;;;;;;;;;;;;;;;;;5024717;28;1234;-72
2022/12/15 16:19:52;;;;;;;;;;;;;;;;;;5026766;28;751;-72
2022/12/15 16:22:19;;;;;;;;;;;;;;;;;;5028191;28;1159;-71
2022/12/15 16:24:45;;;;;;;;;;;;;;;;;;5031522;28;1291;-71
2022/12/15 16:27:13;;;;;;;;;;;;;;;;;;5030695;28;786;-71
2022/12/15 16:29:40;;;;;;;;;;;;;;;;;;5029397;28;1028;-74
2022/12/15 16:32:06;;;;;;;;;;;;;;;;;;5028969;28;1048;-72
2022/12/15 16:34:32;;;;;;;;;;;;;;;;;;5031786;28;1977;-71
2022/12/15 16:36:58;;;;;;;;;;;;;;;;;;5028512;28;1317;-72
2022/12/15 16:39:25;;;;;;;;;;;;;;;;;;5029263;28;1118;-72
2022/12/15 16:41:51;;;;;;;;;;;;;;;;;;5028688;28;1071;-72
2022/12/15 16:44:19;;;;;;;;;;;;;;;;;;5029845;28;1333;-71
2022/12/15 16:46:45;;;;;;;;;;;;;;;;;;5029230;28;1071;-69
2022/12/15 16:49:12;;;;;;;;;;;;;;;;;;5029203;28;1551;-72
2022/12/15 16:51:39;;;;;;;;;;;;;;;;;;5030494;28;1048;-72
2022/12/15 16:54:05;;;;;;;;;;;;;;;;;;5036858;28;1910;-72
2022/12/15 16:56:31;;;;;;;;;;;;;;;;;;5035453;28;1032;-72
2022/12/15 16:58:57;;;;;;;;;;;;;;;;;;5029578;28;1067;-71
2022/12/15 17:01:25;;;;;;;;;;;;;;;;;;5026654;28;937;-71
2022/12/15 17:03:51;;;;;;;;;;;;;;;;;;5028386;28;1306;-71
2022/12/15 17:06:17;;;;;;;;;;;;;;;;;;5028582;28;814;-71
2022/12/15 17:08:45;;;;;;;;;;;;;;;;;;5028568;28;1146;-70
2022/12/15 17:11:11;;;;;;;;;;;;;;;;;;5048262;28;820;-71
2022/12/15 17:13:38;;;;;;;;;;;;;;;;;;5034630;28;1448;-71
2022/12/15 17:16:05;;;;;;;;;;;;;;;;;;5035330;28;1985;-72
2022/12/15 17:18:33;;;;;;;;;;;;;;;;;;5027749;28;1230;-72
2022/12/15 17:21:01;;;;;;;;;;;;;;;;;;5031210;28;795;-71
2022/12/15 17:23:27;;;;;;;;;;;;;;;;;;5026080;28;1311;-71
2022/12/15 17:25:53;;;;;;;;;;;;;;;;;;5031432;28;1116;-71
2022/12/15 17:28:20;;;;;;;;;;;;;;;;;;5024716;28;1333;-71
2022/12/15 17:30:49;;;;;;;;;;;;;;;;;;5035810;28;1359;-71
2022/12/15 17:33:19;;;;;;;;;;;;;;;;;;5037971;28;1403;-72
2022/12/15 17:35:46;;;;;;;;;;;;;;;;;;5061783;28;1945;-72
2022/12/15 17:38:14;;;;;;;;;;;;;;;;;;5037441;28;1265;-72
2022/12/15 17:40:40;;;;;;;;;;;;;;;;;;5033964;28;1262;-71
2022/12/15 17:43:10;;;;;;;;;;;;;;;;;;5033402;28;1397;-71
2022/12/15 17:45:36;;;;;;;;;;;;;;;;;;5026874;28;1280;-71
2022/12/15 17:48:02;;;;;;;;;;;;;;;;;;5048317;28;830;-71
2022/12/15 17:50:28;;;;;;;;;;;;;;;;;;5046560;28;1173;-71
2022/12/15 17:52:56;;;;;;;;;;;;;;;;;;5044276;28;1346;-71
2022/12/15 17:55:23;;;;;;;;;;;;;;;;;;4998035;28;1938;-72
2022/12/15 17:57:50;;;;;;;;;;;;;;;;;;4984522;28;881;-71
2022/12/15 18:00:22;;;;;;;;;;;;;;;;;;4983148;28;868;-72
2022/12/15 18:02:48;;;;;;;;;;;;;;;;;;4970137;28;1377;-71
2022/12/15 18:05:15;;;;;;;;;;;;;;;;;;4959732;28;1480;-72
2022/12/15 18:07:42;;;;;;;;;;;;;;;;;;4951154;28;794;-71
2022/12/15 18:10:14;;;;;;;;;;;;;;;;;;4959360;28;1282;-72
2022/12/15 18:12:40;;;;;;;;;;;;;;;;;;4961941;28;1192;-71
2022/12/15 18:15:08;;;;;;;;;;;;;;;;;;4958849;28;1942;-71
2022/12/15 18:17:37;;;;;;;;;;;;;;;;;;4942588;28;870;-73
2022/12/15 18:20:06;;;;;;;;;;;;;;;;;;4951371;28;1577;-72
2022/12/15 18:22:32;;;;;;;;;;;;;;;;;;4961905;28;1276;-72
2022/12/15 18:24:59;;;;;;;;;;;;;;;;;;4950020;28;1575;-71
2022/12/15 18:27:27;;;;;;;;;;;;;;;;;;4955375;28;1050;-71
2022/12/15 18:29:55;;;;;;;;;;;;;;;;;;4973076;28;1203;-72
2022/12/15 18:32:22;;;;;;;;;;;;;;;;;;4959878;28;838;-72
2022/12/15 18:34:49;;;;;;;;;;;;;;;;;;4963143;28;2039;-72
2022/12/15 18:37:16;;;;;;;;;;;;;;;;;;4972661;28;922;-74
2022/12/15 18:39:43;;;;;;;;;;;;;;;;;;4965256;28;1501;-74
2022/12/15 18:42:13;;;;;;;;;;;;;;;;;;4962768;28;1672;-74
2022/12/15 18:44:41;;;;;;;;;;;;;;;;;;4955749;28;1325;-73
2022/12/15 18:47:10;;;;;;;;;;;;;;;;;;4959961;28;1594;-71
2022/12/15 18:49:37;;;;;;;;;;;;;;;;;;4961349;28;901;-73
2022/12/15 18:52:04;;;;;;;;;;;;;;;;;;4963477;28;912;-72
2022/12/15 18:54:30;;;;;;;;;;;;;;;;;;4963265;28;1439;-72
2022/12/15 18:56:57;;;;;;;;;;;;;;;;;;4958101;28;2118;-74
2022/12/15 18:59:24;;;;;;;;;;;;;;;;;;4956457;28;858;-73
2022/12/15 19:01:52;;;;;;;;;;;;;;;;;;4954497;28;1624;-74
2022/12/15 19:04:18;;;;;;;;;;;;;;;;;;4961850;28;1446;-72
2022/12/15 19:06:45;;;;;;;;;;;;;;;;;;4962455;28;941;-72
2022/12/15 19:09:13;;;;;;;;;;;;;;;;;;4962939;28;930;-71
2022/12/15 19:11:39;;;;;;;;;;;;;;;;;;4961449;28;910;-71
2022/12/15 19:14:38;;;;;;;;;;;;;;;;;;4962718;28;1577;-72
2022/12/15 19:22:28;;;;;;;;;;;;;;;;;;5006566;28;984;-71
2022/12/15 19:24:55;;;;;;;;;;;;;;;;;;4970362;28;1397;-74
2022/12/15 19:27:25;;;;;;;;;;;;;;;;;;5017592;22;3610;-75
2022/12/15 19:29:51;;;;;;;;;;;;;;;;;;5061502;28;1364;-75
2022/12/15 19:32:19;;;;;;;;;;;;;;;;;;5058162;28;1421;-75
2022/12/15 19:34:45;;;;;;;;;;;;;;;;;;5063583;28;1495;-77
2022/12/15 19:37:12;;;;;;;;;;;;;;;;;;5048388;28;1978;-77